Time;durP1;ratioP1;P1;durP2;ratioP2;P2;SDS_P1;SDS_P2;PMS_P1;PMS_P2;Temp;Humidity;BMP_temperature;BMP_pressure;BME280_temperature;BME280_humidity;BME280_pressure;Samples;Min_cycle;Max_cycle;Signal;HPM_P1;HPM_P2
2024/03/23 00:00:06;;;;;;;0.30;0.30;;;;;;;10.75;71.68;101249.03;5098696;28;20118;-77
2024/03/23 00:02:33;;;;;;;3.35;3.10;;;;;;;10.71;71.43;101248.19;5098202;28;20485;-78
2024/03/23 00:05:00;;;;;;;2.13;2.03;;;;;;;10.63;70.76;101243.00;5097392;28;20042;-76
2024/03/23 00:07:28;;;;;;;0.52;0.40;;;;;;;10.63;70.66;101243.00;5095035;28;20020;-77
2024/03/23 00:09:55;;;;;;;0.10;0.10;;;;;;;10.57;70.13;101242.22;5095342;28;20029;-78
2024/03/23 00:12:22;;;;;;;0.90;0.90;;;;;;;10.59;69.99;101238.66;5096993;28;20032;-76
2024/03/23 00:14:50;;;;;;;0.20;0.20;;;;;;;10.59;70.08;101237.75;5098631;28;20032;-78
2024/03/23 00:17:17;;;;;;;0.15;0.15;;;;;;;10.61;70.15;101234.19;5097201;28;20042;-77
2024/03/23 00:19:44;;;;;;;0.10;0.10;;;;;;;10.58;69.67;101231.59;5097120;28;20028;-78
2024/03/23 00:22:11;;;;;;;0.10;0.10;;;;;;;10.58;69.29;101234.25;5096022;28;20028;-78
2024/03/23 00:24:39;;;;;;;0.30;0.30;;;;;;;10.55;69.36;101226.31;5096672;28;20406;-77
2024/03/23 00:27:06;;;;;;;0.10;0.10;;;;;;;10.47;68.75;101222.94;5078064;28;20077;-77
2024/03/23 00:29:33;;;;;;;0.10;0.10;;;;;;;10.50;69.14;101218.47;5096423;28;20434;-78
2024/03/23 00:32:01;;;;;;;0.10;0.10;;;;;;;10.50;68.79;101212.28;5097227;28;20103;-78
2024/03/23 00:34:28;;;;;;;0.10;0.10;;;;;;;10.50;69.20;101217.56;5098460;28;20451;-77
2024/03/23 00:36:55;;;;;;;0.10;0.10;;;;;;;10.49;69.22;101213.16;5080293;28;20040;-77
2024/03/23 00:39:22;;;;;;;0.30;0.30;;;;;;;10.51;69.86;101208.72;5096862;28;20099;-79
2024/03/23 00:41:50;;;;;;;0.17;0.17;;;;;;;10.47;68.99;101199.94;5098369;28;20052;-78
2024/03/23 00:44:17;;;;;;;0.10;0.10;;;;;;;10.49;69.11;101205.22;5099542;28;20134;-79
2024/03/23 00:46:44;;;;;;;0.70;0.70;;;;;;;10.47;69.00;101202.59;5107493;28;20035;-77
2024/03/23 00:49:12;;;;;;;0.10;0.10;;;;;;;10.46;69.33;101194.69;5101639;28;20091;-78
2024/03/23 00:51:39;;;;;;;0.10;0.10;;;;;;;10.43;69.19;101195.59;5095307;28;20040;-78
2024/03/23 00:54:05;;;;;;;0.00;0.00;;;;;;;10.35;68.41;101197.44;5096471;28;20030;-78
2024/03/23 00:56:31;;;;;;;0.47;0.47;;;;;;;10.34;68.28;101180.69;5094739;28;20110;-77
2024/03/23 00:58:57;;;;;;;0.10;0.10;;;;;;;10.33;68.18;101176.28;5094791;28;20020;-78
2024/03/23 01:01:23;;;;;;;0.63;0.63;;;;;;;10.35;68.97;101174.50;5095374;28;20031;-78
2024/03/23 01:03:50;;;;;;;0.10;0.10;;;;;;;10.33;69.04;101183.31;5095653;28;20032;-78
2024/03/23 01:06:16;;;;;;;0.40;0.40;;;;;;;10.30;69.06;101171.00;5100688;28;20066;-77
2024/03/23 01:08:42;;;;;;;0.10;0.10;;;;;;;10.25;68.84;101164.03;5096657;28;20024;-77
2024/03/23 01:11:08;;;;;;;0.20;0.20;;;;;;;10.22;68.41;101156.09;5101930;28;20050;-76
2024/03/23 01:13:34;;;;;;;0.10;0.10;;;;;;;10.17;68.18;101161.50;5104974;28;20035;-76
2024/03/23 01:16:01;;;;;;;0.10;0.10;;;;;;;10.10;68.42;101159.81;5103696;28;20047;-77
2024/03/23 01:18:28;;;;;;;0.20;0.20;;;;;;;10.07;68.60;101150.13;5104907;28;20024;-79
2024/03/23 01:20:54;;;;;;;0.17;0.17;;;;;;;10.02;68.74;101160.78;5102076;28;20032;-78
2024/03/23 01:23:20;;;;;;;0.10;0.10;;;;;;;10.00;68.56;101159.06;5105089;28;20028;-75
2024/03/23 01:25:54;;;;;;;3.08;0.63;;;;;;;9.99;68.70;101154.66;5105022;28;20062;-78
2024/03/23 01:28:21;;;;;;;0.20;0.20;;;;;;;9.90;68.09;101163.56;5095873;28;20023;-78
2024/03/23 01:30:48;;;;;;;2.33;2.20;;;;;;;9.85;68.38;101155.69;5095287;28;20032;-78
2024/03/23 01:33:14;;;;;;;3.35;2.83;;;;;;;9.80;68.49;101167.25;5094574;28;20399;-78
2024/03/23 01:35:41;;;;;;;0.10;0.10;;;;;;;9.79;68.57;101165.47;5095468;28;20534;-77
2024/03/23 01:38:07;;;;;;;0.10;0.10;;;;;;;9.71;68.62;101160.28;5094112;28;20051;-78
2024/03/23 01:40:33;;;;;;;0.10;0.10;;;;;;;9.62;68.36;101155.06;5094859;28;20038;-78
2024/03/23 01:43:04;;;;;;;0.45;0.45;;;;;;;9.64;68.59;101158.59;5095103;28;20478;-79
2024/03/23 01:45:31;;;;;;;0.10;0.10;;;;;;;9.57;68.46;101157.78;5094946;28;20144;-78
2024/03/23 01:47:58;;;;;;;0.77;0.77;;;;;;;9.52;68.69;101156.94;5092347;28;20410;-78
2024/03/23 01:50:24;;;;;;;0.10;0.10;;;;;;;9.45;68.42;101155.28;5094797;28;20032;-79
2024/03/23 01:52:51;;;;;;;0.10;0.10;;;;;;;9.42;68.30;101144.72;5094840;28;20028;-79
2024/03/23 01:55:18;;;;;;;0.10;0.10;;;;;;;9.38;68.31;101149.16;5094588;28;20024;-78
2024/03/23 01:57:44;;;;;;;0.08;0.08;;;;;;;9.34;68.40;101150.09;5093634;28;20056;-78
2024/03/23 02:00:12;;;;;;;0.10;0.10;;;;;;;9.33;68.21;101148.31;5094590;28;20024;-78
2024/03/23 02:02:44;;;;;;;0.10;0.10;;;;;;;9.31;68.55;101143.06;5086551;28;20047;-78
2024/03/23 02:05:11;;;;;;;0.20;0.20;;;;;;;9.26;68.58;101146.63;5094947;28;20031;-79
2024/03/23 02:07:39;;;;;;;0.10;0.10;;;;;;;9.19;68.49;101144.03;5093722;28;20032;-77
2024/03/23 02:10:07;;;;;;;0.10;0.10;;;;;;;9.16;68.27;101148.47;5094362;28;20055;-78
2024/03/23 02:12:33;;;;;;;0.25;0.25;;;;;;;9.07;68.11;101139.75;5093859;28;20036;-78
2024/03/23 02:15:00;;;;;;;0.85;0.85;;;;;;;9.09;68.36;101141.53;5093060;28;20039;-78
2024/03/23 02:17:26;;;;;;;1.95;1.05;;;;;;;9.02;68.09;101136.28;5092535;28;20114;-78
2024/03/23 02:19:52;;;;;;;0.17;0.17;;;;;;;9.02;68.81;101141.56;5094506;28;20395;-79
2024/03/23 02:22:18;;;;;;;0.10;0.10;;;;;;;9.00;67.90;101129.25;5093940;28;20028;-78
2024/03/23 02:24:45;;;;;;;0.20;0.20;;;;;;;9.01;68.51;101133.63;5094413;28;20042;-78
2024/03/23 02:27:11;;;;;;;0.20;0.20;;;;;;;9.01;68.09;101123.97;5092517;28;20059;-78
2024/03/23 02:29:37;;;;;;;0.10;0.10;;;;;;;9.01;67.55;101117.78;5092328;28;20438;-76
2024/03/23 02:32:04;;;;;;;0.10;0.10;;;;;;;8.96;66.40;101120.47;5092431;28;20120;-75
2024/03/23 02:34:30;;;;;;;0.10;0.10;;;;;;;8.94;67.11;101119.59;5092499;28;20050;-76
2024/03/23 02:36:57;;;;;;;0.10;0.10;;;;;;;8.98;67.31;101113.41;5092592;28;20052;-77
2024/03/23 02:39:23;;;;;;;0.10;0.10;;;;;;;9.00;67.19;101114.28;5091391;28;20039;-76
2024/03/23 02:41:49;;;;;;;0.10;0.10;;;;;;;9.02;66.79;101122.19;5092220;28;20047;-77
2024/03/23 02:44:15;;;;;;;0.10;0.10;;;;;;;9.00;66.03;101122.19;5092347;28;20035;-77
2024/03/23 02:46:41;;;;;;;0.10;0.10;;;;;;;9.02;65.71;101124.81;5093570;28;20181;-76
2024/03/23 02:49:08;;;;;;;0.10;0.10;;;;;;;9.01;65.14;101126.59;5092121;28;20036;-77
2024/03/23 02:51:34;;;;;;;0.10;0.10;;;;;;;9.01;64.84;101128.34;5097814;28;20032;-76
2024/03/23 02:54:00;;;;;;;0.10;0.10;;;;;;;8.99;64.82;101125.72;5112209;28;20032;-79
2024/03/23 02:56:27;;;;;;;0.10;0.10;;;;;;;8.95;64.42;101121.38;5111248;28;20087;-76
2024/03/23 02:58:53;;;;;;;0.10;0.10;;;;;;;8.92;65.31;101118.72;5110595;28;20084;-78
2024/03/23 03:01:19;;;;;;;1.30;1.23;;;;;;;8.94;66.07;101111.69;5111949;28;20108;-78
2024/03/23 03:03:45;;;;;;;0.20;0.20;;;;;;;8.92;65.93;101107.31;5111654;28;20020;-77
2024/03/23 03:06:11;;;;;;;0.10;0.10;;;;;;;8.90;65.30;101109.97;5114287;28;20039;-77
2024/03/23 03:08:37;;;;;;;1.77;1.17;;;;;;;8.88;65.27;101111.72;5113194;28;20036;-76
2024/03/23 03:11:04;;;;;;;0.10;0.10;;;;;;;8.90;65.71;101109.97;5108096;28;20083;-78
2024/03/23 03:13:30;;;;;;;1.00;1.00;;;;;;;8.88;65.42;101111.72;5100248;28;20078;-78
2024/03/23 03:15:57;;;;;;;0.10;0.10;;;;;;;8.86;65.32;101105.56;5107273;28;20031;-77
2024/03/23 03:18:24;;;;;;;0.10;0.10;;;;;;;8.77;64.78;101103.03;5107974;28;20395;-78
2024/03/23 03:20:53;;;;;;;0.10;0.10;;;;;;;8.78;65.36;101108.28;5105015;28;20111;-78
2024/03/23 03:23:20;;;;;;;0.20;0.20;;;;;;;8.70;65.56;101108.34;5104322;28;20020;-78
2024/03/23 03:25:46;;;;;;;0.20;0.20;;;;;;;8.71;65.28;101111.88;5112799;28;20046;-78
2024/03/23 03:28:12;;;;;;;0.10;0.10;;;;;;;8.65;65.92;101112.81;5107699;28;20103;-78
2024/03/23 03:30:39;;;;;;;0.10;0.10;;;;;;;8.60;65.63;101114.59;5097913;28;20032;-77
2024/03/23 03:33:05;;;;;;;0.03;0.03;;;;;;;8.54;65.38;101112.00;5111280;28;20487;-77
2024/03/23 03:35:31;;;;;;;0.10;0.10;;;;;;;8.52;65.24;101096.19;5105845;28;20036;-79
2024/03/23 03:37:57;;;;;;;0.10;0.10;;;;;;;8.54;65.96;101112.00;5098666;28;20028;-79
2024/03/23 03:40:24;;;;;;;0.10;0.10;;;;;;;8.51;65.57;101099.72;5099467;28;20028;-79
2024/03/23 03:42:50;;;;;;;0.10;0.10;;;;;;;8.48;65.65;101101.50;5101439;28;20028;-77
2024/03/23 03:45:17;;;;;;;0.10;0.10;;;;;;;8.45;65.52;101097.09;5105503;28;20031;-76
2024/03/23 03:47:43;;;;;;;0.10;0.10;;;;;;;8.42;65.56;101092.69;5096821;28;20491;-78
2024/03/23 03:50:09;;;;;;;0.20;0.20;;;;;;;8.38;65.52;101080.38;5097378;28;20034;-77
2024/03/23 03:52:35;;;;;;;0.10;0.10;;;;;;;8.32;65.73;101083.06;5097270;28;20129;-78
2024/03/23 03:55:03;;;;;;;0.10;0.10;;;;;;;8.32;65.73;101079.56;5096603;28;20036;-78
2024/03/23 03:57:29;;;;;;;0.10;0.10;;;;;;;8.25;65.69;101078.75;5095239;28;20039;-77
2024/03/23 03:59:55;;;;;;;0.10;0.10;;;;;;;8.22;66.02;101081.38;5096353;28;20020;-78
2024/03/23 04:02:21;;;;;;;0.10;0.10;;;;;;;8.25;65.72;101073.47;5096369;28;20107;-77
2024/03/23 04:04:48;;;;;;;0.40;0.40;;;;;;;8.25;66.33;101073.47;5097277;28;20554;-78
2024/03/23 04:07:14;;;;;;;0.10;0.10;;;;;;;8.26;66.14;101073.44;5095587;28;20047;-78
2024/03/23 04:09:40;;;;;;;0.10;0.10;;;;;;;8.26;65.50;101072.53;5096135;28;20031;-78
2024/03/23 04:12:06;;;;;;;0.15;0.15;;;;;;;8.24;66.07;101071.69;5096347;28;20091;-78
2024/03/23 04:14:33;;;;;;;0.10;0.10;;;;;;;8.21;66.39;101075.25;5096634;28;20105;-79
2024/03/23 04:16:59;;;;;;;0.10;0.10;;;;;;;8.20;65.63;101072.59;5096169;28;20032;-77
2024/03/23 04:19:25;;;;;;;0.10;0.10;;;;;;;8.25;65.57;101070.81;5094782;28;20024;-76
2024/03/23 04:21:51;;;;;;;0.13;0.13;;;;;;;8.19;65.02;101069.09;5095170;28;20032;-77
2024/03/23 04:24:20;;;;;;;0.10;0.10;;;;;;;8.25;65.85;101076.09;5095588;28;20411;-76
2024/03/23 04:26:46;;;;;;;0.10;0.10;;;;;;;8.22;65.55;101065.53;5096383;28;20092;-78
2024/03/23 04:29:12;;;;;;;0.13;0.13;;;;;;;8.23;65.94;101062.03;5095377;28;20032;-77
2024/03/23 04:31:38;;;;;;;0.10;0.10;;;;;;;8.23;65.70;101067.31;5096656;28;20032;-78
2024/03/23 04:34:05;;;;;;;0.20;0.20;;;;;;;8.20;65.28;101062.03;5097244;28;20090;-78
2024/03/23 04:36:31;;;;;;;0.10;0.10;;;;;;;8.19;65.30;101062.94;5096535;28;20024;-76
2024/03/23 04:38:59;;;;;;;0.20;0.20;;;;;;;8.15;65.53;101067.34;5095815;28;20043;-78
2024/03/23 04:41:25;;;;;;;2.10;1.45;;;;;;;8.09;65.50;101060.34;5097052;28;20507;-77
2024/03/23 04:43:52;;;;;;;0.10;0.10;;;;;;;8.07;65.29;101070.06;5095847;28;20036;-75
2024/03/23 04:46:18;;;;;;;0.10;0.10;;;;;;;8.05;65.42;101058.63;5094671;28;20055;-77
2024/03/23 04:48:44;;;;;;;0.30;0.30;;;;;;;8.07;65.55;101063.88;5092983;28;20028;-75
2024/03/23 04:51:12;;;;;;;0.10;0.10;;;;;;;8.06;65.49;101057.75;5094877;28;20032;-76
2024/03/23 04:53:38;;;;;;;0.10;0.10;;;;;;;8.06;65.54;101057.75;5095691;28;20081;-76
2024/03/23 04:56:04;;;;;;;0.25;0.25;;;;;;;8.06;65.44;101046.28;5095490;28;20028;-77
2024/03/23 04:58:31;;;;;;;0.10;0.10;;;;;;;8.04;65.43;101051.59;5094227;28;20058;-77
2024/03/23 05:00:57;;;;;;;0.10;0.10;;;;;;;8.00;65.63;101046.31;5095031;28;20089;-77
2024/03/23 05:03:24;;;;;;;0.10;0.10;;;;;;;7.98;65.77;101046.34;5095867;28;20507;-76
2024/03/23 05:05:50;;;;;;;0.10;0.10;;;;;;;7.96;65.42;101055.16;5095460;28;20028;-77
2024/03/23 05:08:17;;;;;;;0.10;0.10;;;;;;;7.96;65.65;101058.66;5094708;28;20399;-77
2024/03/23 05:10:43;;;;;;;0.20;0.20;;;;;;;7.94;66.32;101057.81;5094468;28;20115;-78
2024/03/23 05:13:10;;;;;;;0.10;0.10;;;;;;;7.91;66.47;101069.25;5094836;28;20127;-78
2024/03/23 05:15:36;;;;;;;0.10;0.10;;;;;;;7.97;66.41;101068.34;5094884;28;20297;-77
2024/03/23 05:18:03;;;;;;;0.10;0.10;;;;;;;7.93;66.13;101071.88;5094414;28;20032;-76
2024/03/23 05:20:29;;;;;;;0.10;0.10;;;;;;;8.04;65.56;101067.41;5096124;28;20035;-77
2024/03/23 05:22:56;;;;;;;0.10;0.10;;;;;;;8.07;65.62;101074.44;5095453;28;20518;-75
2024/03/23 05:25:22;;;;;;;0.10;0.10;;;;;;;8.18;66.30;101077.03;5096025;28;20538;-76
2024/03/23 05:27:49;;;;;;;0.15;0.15;;;;;;;8.23;65.96;101072.59;5094677;28;20084;-77
2024/03/23 05:30:15;;;;;;;0.10;0.10;;;;;;;8.23;65.91;101068.16;5095447;28;20057;-76
2024/03/23 05:32:42;;;;;;;0.65;0.65;;;;;;;8.30;66.21;101069.03;5095787;28;20023;-78
2024/03/23 05:35:09;;;;;;;1.00;1.00;;;;;;;8.22;65.70;101065.53;5095602;28;20119;-77
2024/03/23 05:37:35;;;;;;;0.10;0.10;;;;;;;8.31;65.74;101068.13;5093115;28;20024;-78
2024/03/23 05:40:03;;;;;;;0.10;0.10;;;;;;;8.34;65.81;101064.59;5094317;28;20437;-78
2024/03/23 05:42:29;;;;;;;0.10;0.10;;;;;;;8.33;65.67;101065.47;5093774;28;20487;-77
2024/03/23 05:44:55;;;;;;;0.10;0.10;;;;;;;8.31;65.49;101068.13;5094373;28;20060;-78
2024/03/23 05:47:22;;;;;;;0.10;0.10;;;;;;;8.38;65.52;101067.19;5092917;28;20028;-77
2024/03/23 05:49:48;;;;;;;0.65;0.65;;;;;;;8.41;65.62;101069.81;5092457;28;20040;-77
2024/03/23 05:52:14;;;;;;;0.10;0.10;;;;;;;8.45;65.95;101069.78;5093043;28;20051;-76
2024/03/23 05:54:40;;;;;;;0.10;0.10;;;;;;;8.52;65.65;101056.56;5093470;28;20671;-77
2024/03/23 05:57:07;;;;;;;0.10;0.10;;;;;;;8.53;65.66;101057.44;5092604;28;20515;-75
2024/03/23 05:59:34;;;;;;;0.10;0.10;;;;;;;8.55;65.89;101055.66;5094736;28;20028;-76
2024/03/23 06:02:00;;;;;;;0.10;0.10;;;;;;;8.42;65.15;101058.38;5093912;28;20039;-77
2024/03/23 06:04:26;;;;;;;0.20;0.20;;;;;;;8.42;65.23;101068.03;5093767;28;20031;-76
2024/03/23 06:06:52;;;;;;;0.10;0.10;;;;;;;8.49;65.50;101066.28;5094289;28;20028;-78
2024/03/23 06:09:19;;;;;;;0.10;0.10;;;;;;;8.59;65.31;101062.66;5093396;28;20414;-77
2024/03/23 06:11:46;;;;;;;0.05;0.05;;;;;;;8.54;65.60;101069.75;5094868;28;20027;-78
2024/03/23 06:14:12;;;;;;;0.10;0.10;;;;;;;8.61;64.76;101066.19;5094482;28;20499;-78
2024/03/23 06:16:38;;;;;;;0.20;0.20;;;;;;;8.70;65.11;101066.09;5093986;28;20063;-77
2024/03/23 06:19:06;;;;;;;0.20;0.20;;;;;;;8.69;64.64;101074.91;5093456;28;20107;-77
2024/03/23 06:21:33;;;;;;;0.10;0.10;;;;;;;8.77;64.58;101063.41;5093947;28;20111;-78
2024/03/23 06:23:59;;;;;;;0.10;0.10;;;;;;;8.79;64.47;101064.28;5094890;28;20031;-77
2024/03/23 06:26:25;;;;;;;0.10;0.10;;;;;;;8.79;64.33;101064.28;5094874;28;20084;-77
2024/03/23 06:28:52;;;;;;;0.10;0.10;;;;;;;8.80;64.17;101061.59;5092852;28;20088;-78
2024/03/23 06:31:18;;;;;;;0.40;0.40;;;;;;;8.93;63.88;101061.50;5093978;28;20454;-78
2024/03/23 06:33:44;;;;;;;0.22;0.22;;;;;;;8.92;64.11;101060.59;5097190;28;20020;-78
2024/03/23 06:36:11;;;;;;;0.10;0.10;;;;;;;8.85;62.91;101069.50;5097491;28;20142;-77
2024/03/23 06:38:38;;;;;;;0.38;0.38;;;;;;;8.88;63.58;101056.25;5096495;28;20115;-78
2024/03/23 06:41:05;;;;;;;0.10;0.10;;;;;;;8.96;62.67;101067.63;5097960;28;20028;-77
2024/03/23 06:43:31;;;;;;;0.10;0.10;;;;;;;8.93;62.97;101074.72;5103976;28;20036;-76
2024/03/23 06:45:57;;;;;;;0.10;0.10;;;;;;;8.94;62.67;101063.25;5104056;28;20031;-76
2024/03/23 06:48:24;;;;;;;0.10;0.10;;;;;;;9.10;63.04;101062.19;5105878;28;20082;-76
2024/03/23 06:50:55;;;;;;;0.10;0.10;;;;;;;9.19;62.54;101071.81;5105120;28;20499;-76
2024/03/23 06:53:21;;;;;;;0.10;0.10;;;;;;;9.25;62.48;101063.81;5105254;28;20020;-77
2024/03/23 06:55:52;;;;;;;0.20;0.20;;;;;;;9.32;62.28;101059.31;5105848;28;20020;-77
2024/03/23 06:58:19;;;;;;;0.10;0.10;;;;;;;9.30;62.25;101051.41;5108591;28;20024;-74
2024/03/23 07:00:46;;;;;;;0.10;0.10;;;;;;;9.19;61.67;101074.44;5112283;28;20016;-76
2024/03/23 07:03:12;;;;;;;1.30;1.30;;;;;;;9.27;62.32;101069.97;5098205;28;20024;-76
2024/03/23 07:05:38;;;;;;;0.10;0.10;;;;;;;9.33;62.40;101067.25;5100378;28;20079;-77
2024/03/23 07:08:05;;;;;;;4.85;4.38;;;;;;;9.31;61.90;101073.41;5095909;28;20483;-78
2024/03/23 07:10:31;;;;;;;0.00;0.00;;;;;;;9.32;61.94;101070.78;5093052;28;20530;-78
2024/03/23 07:12:57;;;;;;;0.10;0.10;;;;;;;9.44;61.57;101060.94;5092699;28;20032;-77
2024/03/23 07:15:24;;;;;;;0.20;0.20;;;;;;;9.46;60.71;101053.84;5092876;28;20036;-76
2024/03/23 07:17:50;;;;;;;0.15;0.15;;;;;;;9.52;60.22;101057.31;5092296;28;20032;-77
2024/03/23 07:20:17;;;;;;;0.10;0.10;;;;;;;9.60;60.49;101070.44;5092793;28;20083;-77
2024/03/23 07:22:45;;;;;;;0.20;0.20;;;;;;;9.71;60.54;101057.94;5093015;28;20563;-78
2024/03/23 07:25:11;;;;;;;0.10;0.10;;;;;;;9.68;59.97;101068.59;5092950;28;20418;-77
2024/03/23 07:27:37;;;;;;;0.13;0.13;;;;;;;9.63;59.66;101065.13;5092401;28;20542;-78
2024/03/23 07:30:03;;;;;;;0.10;0.10;;;;;;;9.61;59.84;101072.19;5093641;28;20066;-78
2024/03/23 07:32:30;;;;;;;0.10;0.10;;;;;;;9.71;59.59;101057.94;5102658;28;20032;-78
2024/03/23 07:34:56;;;;;;;0.30;0.30;;;;;;;9.77;59.79;101054.38;5112638;28;20055;-75
2024/03/23 07:37:22;;;;;;;0.13;0.13;;;;;;;9.74;59.14;101069.41;5096322;28;20394;-78
2024/03/23 07:39:48;;;;;;;0.10;0.10;;;;;;;9.87;59.46;101069.22;5102998;28;20024;-77
2024/03/23 07:42:15;;;;;;;0.47;0.47;;;;;;;10.15;59.86;101055.56;5106146;28;20028;-78
2024/03/23 07:44:41;;;;;;;0.10;0.10;;;;;;;10.02;59.72;101073.41;5105297;28;20039;-79
2024/03/23 07:47:07;;;;;;;0.10;0.10;;;;;;;10.00;59.41;101058.47;5103507;28;20032;-77
2024/03/23 07:49:33;;;;;;;0.10;0.10;;;;;;;9.88;59.29;101059.50;5107416;28;20506;-79
2024/03/23 07:51:59;;;;;;;0.20;0.20;;;;;;;9.83;59.96;101056.03;5103693;28;20394;-79
2024/03/23 07:54:25;;;;;;;0.10;0.10;;;;;;;9.75;59.87;101064.09;5096232;28;20029;-79
2024/03/23 07:56:51;;;;;;;0.17;0.17;;;;;;;9.69;60.19;101049.19;5096354;28;20036;-79
2024/03/23 07:59:19;;;;;;;0.10;0.10;;;;;;;9.73;60.17;101049.97;5094440;28;20020;-79
2024/03/23 08:01:45;;;;;;;0.20;0.20;;;;;;;9.75;60.21;101057.94;5096196;28;20133;-80
2024/03/23 08:04:11;;;;;;;0.10;0.10;;;;;;;9.79;60.18;101059.63;5095205;28;20491;-76
2024/03/23 08:06:38;;;;;;;0.10;0.10;;;;;;;9.86;60.37;101056.00;5094769;28;20070;-78
2024/03/23 08:09:04;;;;;;;0.10;0.10;;;;;;;9.78;59.40;101076.41;5091738;28;20034;-76
2024/03/23 08:11:34;;;;;;;0.10;0.10;;;;;;;9.75;58.67;101056.16;5093615;28;20399;-77
2024/03/23 08:14:01;;;;;;;0.17;0.17;;;;;;;9.74;58.81;101056.16;5097110;28;20024;-77
2024/03/23 08:16:27;;;;;;;0.10;0.10;;;;;;;9.75;58.39;101068.50;5097093;28;20024;-78
2024/03/23 08:18:56;;;;;;;0.00;0.00;;;;;;;9.88;58.10;101060.38;5096353;28;20036;-79
2024/03/23 08:21:22;;;;;;;0.10;0.10;;;;;;;9.90;57.51;101047.13;5096893;28;20572;-79
2024/03/23 08:23:48;;;;;;;0.10;0.10;;;;;;;9.90;57.46;101052.41;5097853;28;20119;-79
2024/03/23 08:26:18;;;;;;;0.10;0.10;;;;;;;10.10;57.73;101049.47;5097393;28;20024;-78
2024/03/23 08:28:44;;;;;;;0.08;0.08;;;;;;;10.04;56.42;101065.44;5097367;28;20088;-79
2024/03/23 08:31:11;;;;;;;0.15;0.15;;;;;;;10.14;56.61;101067.09;5097364;28;20035;-78
2024/03/23 08:33:39;;;;;;;0.10;0.10;;;;;;;10.22;55.87;101052.84;5096983;28;20020;-79
2024/03/23 08:36:08;;;;;;;0.10;0.10;;;;;;;10.34;55.23;101076.50;5098763;28;20024;-79
2024/03/23 08:38:35;;;;;;;0.13;0.13;;;;;;;10.33;54.03;101057.09;5096785;28;20511;-78
2024/03/23 08:43:41;;;;;;;0.10;0.10;;;;;;;10.31;54.54;101042.13;5145768;27;20337;-77
2024/03/23 08:46:12;;;;;;;0.52;0.52;;;;;;;10.26;54.64;101055.41;5154794;27;20056;-78
2024/03/23 08:48:42;;;;;;;0.10;0.10;;;;;;;10.32;54.19;101044.72;5148889;27;20028;-76
2024/03/23 08:51:11;;;;;;;0.10;0.10;;;;;;;10.32;54.27;101044.72;5148651;27;20035;-77
2024/03/23 08:53:38;;;;;;;0.10;0.10;;;;;;;10.46;53.88;101041.03;5152339;27;20026;-79
2024/03/23 08:56:06;;;;;;;0.10;0.10;;;;;;;10.60;53.91;101036.34;5144067;27;20513;-77
2024/03/23 08:58:33;;;;;;;0.03;0.03;;;;;;;10.77;53.48;101035.22;5142321;27;20078;-77
2024/03/23 09:01:14;;;;;;;0.10;0.10;;;;;;;10.70;52.26;101041.53;5149857;27;20149;-79
2024/03/23 09:03:41;;;;;;;1.52;1.48;;;;;;;10.71;51.87;101083.03;5152497;27;20031;-77
2024/03/23 09:06:12;;;;;;;0.52;0.52;;;;;;;10.87;51.61;101052.69;5144305;27;20047;-78
2024/03/23 09:08:40;;;;;;;0.20;0.20;;;;;;;10.89;52.01;101042.94;5151307;27;20075;-78
2024/03/23 09:11:09;;;;;;;0.10;0.10;;;;;;;10.81;52.70;101063.41;5147663;27;20486;-79
2024/03/23 09:13:36;;;;;;;0.17;0.17;;;;;;;10.60;53.43;101044.31;5159333;27;20023;-79
2024/03/23 09:16:05;;;;;;;0.10;0.10;;;;;;;10.64;54.23;101045.13;5159468;27;20552;-78
2024/03/23 09:18:33;;;;;;;0.10;0.10;;;;;;;10.80;54.33;101045.75;5154069;27;20046;-79
2024/03/23 09:20:59;;;;;;;0.10;0.10;;;;;;;10.97;53.69;101056.06;5151914;27;20054;-78
2024/03/23 09:23:26;;;;;;;1.77;1.27;;;;;;;11.00;51.68;101048.94;5157608;27;20060;-79
2024/03/23 09:25:52;;;;;;;0.32;0.32;;;;;;;10.95;50.46;101060.50;5158949;27;20031;-79
2024/03/23 09:28:18;;;;;;;0.10;0.10;;;;;;;10.98;50.78;101053.38;5159792;27;20050;-77
2024/03/23 09:30:44;;;;;;;0.10;0.10;;;;;;;11.11;49.85;101048.69;5171621;27;20041;-78
2024/03/23 09:33:11;;;;;;;0.75;0.75;;;;;;;11.21;50.51;101032.63;5160245;27;20030;-78
2024/03/23 09:35:39;;;;;;;0.13;0.13;;;;;;;11.39;50.84;101034.03;5154455;27;20027;-78
2024/03/23 09:38:07;;;;;;;1.98;0.47;;;;;;;11.43;50.28;101035.72;5153769;27;20031;-78
2024/03/23 09:40:33;;;;;;;2.25;2.08;;;;;;;11.37;49.84;101051.78;5157307;27;20026;-79
2024/03/23 09:43:00;;;;;;;0.98;0.57;;;;;;;11.31;49.55;101037.72;5154427;27;20027;-78
2024/03/23 09:45:28;;;;;;;0.10;0.10;;;;;;;11.39;49.53;101040.22;5153808;27;20482;-77
2024/03/23 09:47:56;;;;;;;0.95;0.95;;;;;;;11.32;49.41;101044.75;5152755;27;20113;-79
2024/03/23 09:50:23;;;;;;;0.30;0.30;;;;;;;11.30;49.81;101041.28;5155144;27;20037;-79
2024/03/23 09:52:49;;;;;;;0.30;0.30;;;;;;;11.32;50.32;101039.44;5150753;27;20022;-80
2024/03/23 09:55:15;;;;;;;0.10;0.10;;;;;;;11.28;50.09;101040.44;5138211;27;20494;-78
2024/03/23 09:57:42;;;;;;;0.10;0.10;;;;;;;11.39;49.22;101039.34;5140387;27;20111;-79
2024/03/23 10:00:09;;;;;;;1.98;0.98;;;;;;;11.55;49.25;101035.47;5140479;27;20027;-80
2024/03/23 10:02:36;;;;;;;0.10;0.10;;;;;;;11.75;49.61;101034.16;5141776;27;20027;-80
2024/03/23 10:05:03;;;;;;;0.10;0.10;;;;;;;11.79;49.17;101044.69;5141703;27;20030;-79
2024/03/23 10:07:32;;;;;;;0.30;0.30;;;;;;;11.58;49.52;101042.50;5130856;27;20035;-78
2024/03/23 10:10:10;;;;;;;0.17;0.17;;;;;;;11.57;48.82;101030.13;5139324;27;20076;-76
2024/03/23 10:12:43;;;;;;;0.10;0.10;;;;;;;11.56;47.35;101042.50;5141321;27;20048;-78
2024/03/23 10:15:18;;;;;;;0.10;0.10;;;;;;;11.56;48.25;101037.19;5140811;27;20019;-78
2024/03/23 10:17:45;;;;;;;0.17;0.17;;;;;;;11.30;48.79;101045.69;5135994;27;20050;-78
2024/03/23 10:20:11;;;;;;;0.10;0.10;;;;;;;11.49;48.80;101030.31;5140236;27;20493;-78
2024/03/23 10:22:39;;;;;;;0.10;0.10;;;;;;;11.53;49.24;101033.78;5120801;28;20483;-78
2024/03/23 10:25:10;;;;;;;0.10;0.10;;;;;;;11.74;49.82;101032.41;5127328;27;20027;-77
2024/03/23 10:27:36;;;;;;;0.10;0.10;;;;;;;11.93;49.53;101031.09;5137049;27;20083;-78
2024/03/23 10:30:12;;;;;;;0.10;0.10;;;;;;;12.22;49.66;101031.38;5137661;27;20126;-78
2024/03/23 10:32:39;;;;;;;11.10;0.95;;;;;;;12.23;47.61;101031.31;5133075;27;20020;-78
2024/03/23 10:35:22;;;;;;;0.10;0.10;;;;;;;12.27;47.57;101030.38;5133369;27;20088;-77
2024/03/23 10:37:49;;;;;;;0.10;0.10;;;;;;;11.94;47.22;101046.13;5132069;27;20046;-76
2024/03/23 10:40:17;;;;;;;0.10;0.10;;;;;;;12.00;48.07;101025.69;5133216;27;20050;-78
2024/03/23 10:42:44;;;;;;;0.10;0.10;;;;;;;11.88;48.32;101030.34;5137364;27;20118;-79
2024/03/23 10:45:11;;;;;;;0.10;0.10;;;;;;;12.01;46.98;101022.97;5138805;27;20038;-78
2024/03/23 10:47:38;;;;;;;0.10;0.10;;;;;;;11.97;45.97;101040.78;5134222;27;20537;-78
2024/03/23 10:50:06;;;;;;;0.10;0.10;;;;;;;11.79;46.03;101027.91;5135883;27;20035;-78
2024/03/23 10:52:34;;;;;;;0.10;0.10;;;;;;;11.64;45.82;101026.44;5133959;27;20504;-79
2024/03/23 10:55:04;;;;;;;0.10;0.10;;;;;;;11.69;45.95;101031.63;5129595;27;20039;-78
2024/03/23 10:57:41;;;;;;;0.10;0.10;;;;;;;11.97;45.82;101019.56;5136971;27;20023;-78
2024/03/23 11:00:08;;;;;;;0.10;0.10;;;;;;;12.13;45.54;101049.25;5137804;27;20027;-77
2024/03/23 11:02:34;;;;;;;0.10;0.10;;;;;;;12.32;44.55;101019.59;5135719;27;20027;-77
2024/03/23 11:05:01;;;;;;;0.10;0.10;;;;;;;12.38;43.00;101026.56;5122985;27;20035;-77
2024/03/23 11:10:25;;;;;;;0.10;0.10;;;;;;;12.28;43.39;101032.09;5089426;28;20122;-78
2024/03/23 11:12:51;;;;;;;0.63;0.63;;;;;;;12.12;42.40;101036.03;5089716;28;20547;-78
2024/03/23 11:15:17;;;;;;;0.10;0.10;;;;;;;12.36;43.31;101012.44;5097898;28;20035;-77
2024/03/23 11:20:41;;;;;;;0.10;0.10;;;;;;;12.39;44.59;101023.00;5100906;27;20584;-76
2024/03/23 11:23:07;;;;;;;0.10;0.10;;;;;;;12.79;44.45;101004.22;5093975;28;20037;-76
2024/03/23 11:25:34;;;;;;;0.10;0.10;;;;;;;12.96;44.79;100997.59;5092689;28;20196;-76
2024/03/23 11:28:16;;;;;;;0.08;0.08;;;;;;;12.87;43.61;101014.69;5093327;28;20028;-76
2024/03/23 11:30:42;;;;;;;0.10;0.10;;;;;;;12.63;43.82;101016.19;5095633;28;20024;-77
2024/03/23 11:33:09;;;;;;;0.10;0.10;;;;;;;12.54;43.48;100996.03;5096676;28;20024;-76
2024/03/23 11:35:38;;;;;;;0.10;0.10;;;;;;;12.50;43.88;101005.00;5092373;28;20024;-77